sensor_id;sensor_type;location;lat;lon;timestamp;P1;durP1;ratioP1;P2;durP2;ratioP2
12383;SDS011;6256;63.808;20.336;2023-08-20T00:00:54;2.20;;;2.00;;
12383;SDS011;6256;63.808;20.336;2023-08-20T00:03:20;2.33;;;1.80;;
12383;SDS011;6256;63.808;20.336;2023-08-20T00:05:46;4.50;;;1.73;;
12383;SDS011;6256;63.808;20.336;2023-08-20T00:08:12;2.47;;;1.83;;
12383;SDS011;6256;63.808;20.336;2023-08-20T00:10:38;3.47;;;1.80;;
12383;SDS011;6256;63.808;20.336;2023-08-20T00:13:03;3.07;;;1.83;;
12383;SDS011;6256;63.808;20.336;2023-08-20T00:15:29;3.67;;;1.90;;
12383;SDS011;6256;63.808;20.336;2023-08-20T00:17:55;4.67;;;1.73;;
12383;SDS011;6256;63.808;20.336;2023-08-20T00:20:21;3.17;;;1.80;;
12383;SDS011;6256;63.808;20.336;2023-08-20T00:22:47;3.40;;;2.10;;
12383;SDS011;6256;63.808;20.336;2023-08-20T00:25:14;1.63;;;1.50;;
12383;SDS011;6256;63.808;20.336;2023-08-20T00:27:41;2.70;;;2.00;;
12383;SDS011;6256;63.808;20.336;2023-08-20T00:30:08;2.10;;;1.80;;
12383;SDS011;6256;63.808;20.336;2023-08-20T00:32:35;3.33;;;1.97;;
12383;SDS011;6256;63.808;20.336;2023-08-20T00:35:01;3.53;;;1.80;;
12383;SDS011;6256;63.808;20.336;2023-08-20T00:37:28;2.00;;;1.60;;
12383;SDS011;6256;63.808;20.336;2023-08-20T00:39:54;1.67;;;1.50;;
12383;SDS011;6256;63.808;20.336;2023-08-20T00:42:20;3.07;;;1.80;;
12383;SDS011;6256;63.808;20.336;2023-08-20T00:44:45;1.67;;;1.57;;
12383;SDS011;6256;63.808;20.336;2023-08-20T00:47:12;1.87;;;1.70;;
12383;SDS011;6256;63.808;20.336;2023-08-20T00:49:39;2.73;;;1.57;;
12383;SDS011;6256;63.808;20.336;2023-08-20T00:52:06;2.03;;;1.70;;
12383;SDS011;6256;63.808;20.336;2023-08-20T00:54:34;1.60;;;1.50;;
12383;SDS011;6256;63.808;20.336;2023-08-20T00:57:00;2.20;;;1.57;;
12383;SDS011;6256;63.808;20.336;2023-08-20T00:59:27;2.57;;;1.60;;
12383;SDS011;6256;63.808;20.336;2023-08-20T01:01:55;3.50;;;1.70;;
12383;SDS011;6256;63.808;20.336;2023-08-20T01:04:20;2.53;;;1.87;;
12383;SDS011;6256;63.808;20.336;2023-08-20T01:06:50;2.00;;;1.70;;
12383;SDS011;6256;63.808;20.336;2023-08-20T01:12:26;1.83;;;1.50;;
12383;SDS011;6256;63.808;20.336;2023-08-20T01:14:53;1.60;;;1.50;;
12383;SDS011;6256;63.808;20.336;2023-08-20T01:17:19;3.33;;;1.73;;
12383;SDS011;6256;63.808;20.336;2023-08-20T01:19:45;2.87;;;1.80;;
12383;SDS011;6256;63.808;20.336;2023-08-20T01:28:03;2.80;;;1.50;;
12383;SDS011;6256;63.808;20.336;2023-08-20T01:30:49;2.80;;;1.50;;
12383;SDS011;6256;63.808;20.336;2023-08-20T01:33:17;2.00;;;1.50;;
12383;SDS011;6256;63.808;20.336;2023-08-20T01:35:43;1.70;;;1.53;;
12383;SDS011;6256;63.808;20.336;2023-08-20T01:38:09;2.43;;;1.70;;
12383;SDS011;6256;63.808;20.336;2023-08-20T01:40:35;1.80;;;1.60;;
12383;SDS011;6256;63.808;20.336;2023-08-20T01:43:00;1.93;;;1.10;;
12383;SDS011;6256;63.808;20.336;2023-08-20T01:45:26;1.73;;;1.40;;
12383;SDS011;6256;63.808;20.336;2023-08-20T01:47:52;1.87;;;1.40;;
12383;SDS011;6256;63.808;20.336;2023-08-20T01:50:17;1.40;;;1.10;;
12383;SDS011;6256;63.808;20.336;2023-08-20T01:52:44;1.57;;;1.33;;
12383;SDS011;6256;63.808;20.336;2023-08-20T01:55:10;1.73;;;1.47;;
12383;SDS011;6256;63.808;20.336;2023-08-20T01:57:36;1.97;;;1.70;;
12383;SDS011;6256;63.808;20.336;2023-08-20T02:00:02;1.60;;;1.50;;
12383;SDS011;6256;63.808;20.336;2023-08-20T02:02:30;2.43;;;1.80;;
12383;SDS011;6256;63.808;20.336;2023-08-20T02:04:55;2.43;;;1.30;;
12383;SDS011;6256;63.808;20.336;2023-08-20T02:07:21;1.40;;;1.30;;
12383;SDS011;6256;63.808;20.336;2023-08-20T02:09:47;1.40;;;1.17;;
12383;SDS011;6256;63.808;20.336;2023-08-20T02:12:13;1.50;;;1.40;;
12383;SDS011;6256;63.808;20.336;2023-08-20T02:14:39;2.37;;;1.50;;
12383;SDS011;6256;63.808;20.336;2023-08-20T02:17:05;1.63;;;1.53;;
12383;SDS011;6256;63.808;20.336;2023-08-20T02:19:32;2.27;;;1.43;;
12383;SDS011;6256;63.808;20.336;2023-08-20T02:21:57;1.80;;;1.53;;
12383;SDS011;6256;63.808;20.336;2023-08-20T02:24:23;1.90;;;1.50;;
12383;SDS011;6256;63.808;20.336;2023-08-20T02:26:49;1.60;;;1.40;;
12383;SDS011;6256;63.808;20.336;2023-08-20T02:29:15;1.63;;;1.50;;
12383;SDS011;6256;63.808;20.336;2023-08-20T02:31:41;1.63;;;1.07;;
12383;SDS011;6256;63.808;20.336;2023-08-20T02:34:06;3.03;;;1.30;;
12383;SDS011;6256;63.808;20.336;2023-08-20T02:36:32;2.07;;;1.40;;
12383;SDS011;6256;63.808;20.336;2023-08-20T02:38:58;2.27;;;1.63;;
12383;SDS011;6256;63.808;20.336;2023-08-20T02:41:23;1.30;;;1.20;;
12383;SDS011;6256;63.808;20.336;2023-08-20T02:43:49;2.13;;;1.27;;
12383;SDS011;6256;63.808;20.336;2023-08-20T02:46:15;1.77;;;1.50;;
12383;SDS011;6256;63.808;20.336;2023-08-20T02:48:40;1.90;;;1.70;;
12383;SDS011;6256;63.808;20.336;2023-08-20T02:51:06;1.60;;;1.50;;
12383;SDS011;6256;63.808;20.336;2023-08-20T02:53:32;4.77;;;1.50;;
12383;SDS011;6256;63.808;20.336;2023-08-20T02:55:58;1.43;;;1.33;;
12383;SDS011;6256;63.808;20.336;2023-08-20T02:58:24;2.43;;;1.30;;
12383;SDS011;6256;63.808;20.336;2023-08-20T03:00:50;3.30;;;1.20;;
12383;SDS011;6256;63.808;20.336;2023-08-20T03:03:15;1.67;;;1.20;;
12383;SDS011;6256;63.808;20.336;2023-08-20T03:05:42;1.43;;;1.33;;
12383;SDS011;6256;63.808;20.336;2023-08-20T03:08:08;1.60;;;1.30;;
12383;SDS011;6256;63.808;20.336;2023-08-20T03:10:35;1.37;;;1.27;;
12383;SDS011;6256;63.808;20.336;2023-08-20T03:13:01;1.03;;;1.00;;
12383;SDS011;6256;63.808;20.336;2023-08-20T03:15:28;1.40;;;1.30;;
12383;SDS011;6256;63.808;20.336;2023-08-20T03:17:54;1.40;;;1.30;;
12383;SDS011;6256;63.808;20.336;2023-08-20T03:20:20;1.87;;;1.30;;
12383;SDS011;6256;63.808;20.336;2023-08-20T03:22:45;1.87;;;1.30;;
12383;SDS011;6256;63.808;20.336;2023-08-20T03:25:11;2.20;;;1.10;;
12383;SDS011;6256;63.808;20.336;2023-08-20T03:27:37;1.33;;;1.13;;
12383;SDS011;6256;63.808;20.336;2023-08-20T03:30:03;1.43;;;1.33;;
12383;SDS011;6256;63.808;20.336;2023-08-20T03:32:29;1.87;;;1.50;;
12383;SDS011;6256;63.808;20.336;2023-08-20T03:34:55;1.37;;;1.27;;
12383;SDS011;6256;63.808;20.336;2023-08-20T03:37:22;2.30;;;1.27;;
12383;SDS011;6256;63.808;20.336;2023-08-20T03:39:48;2.23;;;1.53;;
12383;SDS011;6256;63.808;20.336;2023-08-20T03:42:13;4.00;;;1.43;;
12383;SDS011;6256;63.808;20.336;2023-08-20T03:44:39;2.03;;;1.20;;
12383;SDS011;6256;63.808;20.336;2023-08-20T03:47:05;1.50;;;1.30;;
12383;SDS011;6256;63.808;20.336;2023-08-20T03:49:30;1.43;;;1.33;;
12383;SDS011;6256;63.808;20.336;2023-08-20T03:51:56;1.40;;;1.30;;
12383;SDS011;6256;63.808;20.336;2023-08-20T03:54:22;2.40;;;1.40;;
12383;SDS011;6256;63.808;20.336;2023-08-20T03:56:48;1.33;;;1.03;;
12383;SDS011;6256;63.808;20.336;2023-08-20T03:59:13;3.90;;;1.33;;
12383;SDS011;6256;63.808;20.336;2023-08-20T04:01:39;2.57;;;1.27;;
12383;SDS011;6256;63.808;20.336;2023-08-20T04:04:05;1.60;;;1.40;;
12383;SDS011;6256;63.808;20.336;2023-08-20T04:06:30;2.33;;;1.47;;
12383;SDS011;6256;63.808;20.336;2023-08-20T04:08:56;2.17;;;1.70;;
12383;SDS011;6256;63.808;20.336;2023-08-20T04:11:22;1.97;;;1.50;;
12383;SDS011;6256;63.808;20.336;2023-08-20T04:13:48;5.77;;;1.07;;
12383;SDS011;6256;63.808;20.336;2023-08-20T04:16:13;1.27;;;1.17;;
12383;SDS011;6256;63.808;20.336;2023-08-20T04:18:40;1.30;;;1.20;;
12383;SDS011;6256;63.808;20.336;2023-08-20T04:21:06;1.50;;;1.27;;
12383;SDS011;6256;63.808;20.336;2023-08-20T04:23:32;1.83;;;1.50;;
12383;SDS011;6256;63.808;20.336;2023-08-20T04:25:57;2.83;;;1.30;;
12383;SDS011;6256;63.808;20.336;2023-08-20T04:28:23;1.17;;;1.07;;
12383;SDS011;6256;63.808;20.336;2023-08-20T04:30:52;1.90;;;1.40;;
12383;SDS011;6256;63.808;20.336;2023-08-20T04:33:19;1.50;;;1.40;;
12383;SDS011;6256;63.808;20.336;2023-08-20T04:35:45;2.70;;;1.70;;
12383;SDS011;6256;63.808;20.336;2023-08-20T04:38:11;1.70;;;1.23;;
12383;SDS011;6256;63.808;20.336;2023-08-20T04:40:37;1.30;;;1.20;;
12383;SDS011;6256;63.808;20.336;2023-08-20T04:43:03;1.80;;;1.17;;
12383;SDS011;6256;63.808;20.336;2023-08-20T04:45:28;3.73;;;1.37;;
12383;SDS011;6256;63.808;20.336;2023-08-20T04:47:54;1.53;;;1.20;;
12383;SDS011;6256;63.808;20.336;2023-08-20T04:50:20;2.70;;;1.10;;
12383;SDS011;6256;63.808;20.336;2023-08-20T04:52:46;1.57;;;1.30;;
12383;SDS011;6256;63.808;20.336;2023-08-20T04:55:12;1.50;;;1.37;;
12383;SDS011;6256;63.808;20.336;2023-08-20T04:57:37;1.27;;;1.10;;
12383;SDS011;6256;63.808;20.336;2023-08-20T05:00:03;1.37;;;1.27;;
12383;SDS011;6256;63.808;20.336;2023-08-20T05:02:30;1.70;;;1.60;;
12383;SDS011;6256;63.808;20.336;2023-08-20T05:04:56;1.67;;;1.57;;
12383;SDS011;6256;63.808;20.336;2023-08-20T05:07:21;1.30;;;1.20;;
12383;SDS011;6256;63.808;20.336;2023-08-20T05:09:47;1.30;;;1.20;;
12383;SDS011;6256;63.808;20.336;2023-08-20T05:12:14;2.03;;;1.53;;
12383;SDS011;6256;63.808;20.336;2023-08-20T05:14:40;1.73;;;1.37;;
12383;SDS011;6256;63.808;20.336;2023-08-20T05:17:06;2.80;;;1.50;;
12383;SDS011;6256;63.808;20.336;2023-08-20T05:19:31;2.60;;;1.70;;
12383;SDS011;6256;63.808;20.336;2023-08-20T05:21:57;2.23;;;1.37;;
12383;SDS011;6256;63.808;20.336;2023-08-20T05:24:24;2.47;;;1.60;;
12383;SDS011;6256;63.808;20.336;2023-08-20T05:27:11;4.27;;;1.60;;
12383;SDS011;6256;63.808;20.336;2023-08-20T05:29:42;4.67;;;1.50;;
12383;SDS011;6256;63.808;20.336;2023-08-20T05:32:08;3.17;;;1.20;;
12383;SDS011;6256;63.808;20.336;2023-08-20T05:34:35;3.33;;;1.40;;
12383;SDS011;6256;63.808;20.336;2023-08-20T05:37:01;1.20;;;1.10;;
12383;SDS011;6256;63.808;20.336;2023-08-20T05:39:26;2.07;;;1.20;;
12383;SDS011;6256;63.808;20.336;2023-08-20T05:41:53;1.30;;;1.20;;
12383;SDS011;6256;63.808;20.336;2023-08-20T05:44:19;1.30;;;1.20;;
12383;SDS011;6256;63.808;20.336;2023-08-20T05:46:45;1.20;;;1.00;;
12383;SDS011;6256;63.808;20.336;2023-08-20T05:49:11;2.43;;;1.27;;
12383;SDS011;6256;63.808;20.336;2023-08-20T05:51:38;1.47;;;1.27;;
12383;SDS011;6256;63.808;20.336;2023-08-20T05:54:04;1.23;;;1.10;;
12383;SDS011;6256;63.808;20.336;2023-08-20T05:56:30;1.70;;;1.17;;
12383;SDS011;6256;63.808;20.336;2023-08-20T05:58:55;1.20;;;1.10;;
12383;SDS011;6256;63.808;20.336;2023-08-20T06:01:21;1.50;;;1.30;;
12383;SDS011;6256;63.808;20.336;2023-08-20T06:03:47;1.20;;;1.10;;
12383;SDS011;6256;63.808;20.336;2023-08-20T06:06:12;2.35;;;1.35;;
12383;SDS011;6256;63.808;20.336;2023-08-20T06:08:39;1.50;;;1.30;;
12383;SDS011;6256;63.808;20.336;2023-08-20T06:11:04;2.17;;;1.30;;
12383;SDS011;6256;63.808;20.336;2023-08-20T06:13:30;1.02;;;1.02;;
12383;SDS011;6256;63.808;20.336;2023-08-20T06:15:55;1.33;;;1.20;;
12383;SDS011;6256;63.808;20.336;2023-08-20T06:18:21;1.50;;;1.10;;
12383;SDS011;6256;63.808;20.336;2023-08-20T06:20:47;1.20;;;1.10;;
12383;SDS011;6256;63.808;20.336;2023-08-20T06:23:12;1.10;;;1.08;;
12383;SDS011;6256;63.808;20.336;2023-08-20T06:25:38;1.38;;;1.17;;
12383;SDS011;6256;63.808;20.336;2023-08-20T06:28:04;1.52;;;1.20;;
12383;SDS011;6256;63.808;20.336;2023-08-20T06:30:29;0.90;;;0.90;;
12383;SDS011;6256;63.808;20.336;2023-08-20T06:32:55;0.88;;;0.88;;
12383;SDS011;6256;63.808;20.336;2023-08-20T06:35:21;1.38;;;0.90;;
12383;SDS011;6256;63.808;20.336;2023-08-20T06:37:47;1.67;;;1.20;;
12383;SDS011;6256;63.808;20.336;2023-08-20T06:40:12;1.33;;;1.15;;
12383;SDS011;6256;63.808;20.336;2023-08-20T06:42:39;1.45;;;1.20;;
12383;SDS011;6256;63.808;20.336;2023-08-20T06:45:04;1.20;;;1.10;;
12383;SDS011;6256;63.808;20.336;2023-08-20T06:47:31;1.45;;;1.13;;
12383;SDS011;6256;63.808;20.336;2023-08-20T06:49:56;1.30;;;1.20;;
12383;SDS011;6256;63.808;20.336;2023-08-20T06:52:22;1.60;;;1.08;;
12383;SDS011;6256;63.808;20.336;2023-08-20T06:54:47;2.17;;;1.45;;
12383;SDS011;6256;63.808;20.336;2023-08-20T06:57:13;1.38;;;1.27;;
12383;SDS011;6256;63.808;20.336;2023-08-20T06:59:39;1.63;;;1.27;;
12383;SDS011;6256;63.808;20.336;2023-08-20T07:02:05;1.25;;;1.08;;
12383;SDS011;6256;63.808;20.336;2023-08-20T07:04:30;2.97;;;1.20;;
12383;SDS011;6256;63.808;20.336;2023-08-20T07:07:01;2.05;;;1.35;;
12383;SDS011;6256;63.808;20.336;2023-08-20T07:09:29;1.40;;;1.30;;
12383;SDS011;6256;63.808;20.336;2023-08-20T07:11:56;1.42;;;1.30;;
12383;SDS011;6256;63.808;20.336;2023-08-20T07:14:21;1.17;;;0.95;;
12383;SDS011;6256;63.808;20.336;2023-08-20T07:16:47;1.58;;;1.10;;
12383;SDS011;6256;63.808;20.336;2023-08-20T07:19:13;2.05;;;1.27;;
12383;SDS011;6256;63.808;20.336;2023-08-20T07:21:38;2.13;;;1.40;;
12383;SDS011;6256;63.808;20.336;2023-08-20T07:24:04;1.42;;;1.10;;
12383;SDS011;6256;63.808;20.336;2023-08-20T07:26:30;1.70;;;1.60;;
12383;SDS011;6256;63.808;20.336;2023-08-20T07:28:56;1.75;;;1.38;;
12383;SDS011;6256;63.808;20.336;2023-08-20T07:31:25;2.10;;;1.23;;
12383;SDS011;6256;63.808;20.336;2023-08-20T07:33:52;1.58;;;1.35;;
12383;SDS011;6256;63.808;20.336;2023-08-20T07:36:20;2.50;;;1.30;;
12383;SDS011;6256;63.808;20.336;2023-08-20T07:38:47;1.10;;;1.00;;
12383;SDS011;6256;63.808;20.336;2023-08-20T07:41:13;1.40;;;1.30;;
12383;SDS011;6256;63.808;20.336;2023-08-20T07:43:39;1.17;;;1.08;;
12383;SDS011;6256;63.808;20.336;2023-08-20T07:46:05;1.75;;;1.30;;
12383;SDS011;6256;63.808;20.336;2023-08-20T07:48:32;1.33;;;1.23;;
12383;SDS011;6256;63.808;20.336;2023-08-20T07:50:59;1.25;;;1.15;;
12383;SDS011;6256;63.808;20.336;2023-08-20T07:53:25;1.15;;;1.10;;
12383;SDS011;6256;63.808;20.336;2023-08-20T07:55:50;1.40;;;1.02;;
12383;SDS011;6256;63.808;20.336;2023-08-20T07:58:16;1.45;;;1.35;;
12383;SDS011;6256;63.808;20.336;2023-08-20T08:00:42;2.10;;;1.10;;
12383;SDS011;6256;63.808;20.336;2023-08-20T08:03:08;1.50;;;1.33;;
12383;SDS011;6256;63.808;20.336;2023-08-20T08:05:35;1.27;;;1.17;;
12383;SDS011;6256;63.808;20.336;2023-08-20T08:08:01;1.20;;;1.10;;
12383;SDS011;6256;63.808;20.336;2023-08-20T08:10:27;2.60;;;1.25;;
12383;SDS011;6256;63.808;20.336;2023-08-20T08:12:54;1.70;;;1.20;;
12383;SDS011;6256;63.808;20.336;2023-08-20T08:15:21;1.80;;;1.15;;
12383;SDS011;6256;63.808;20.336;2023-08-20T08:17:47;1.50;;;1.20;;
12383;SDS011;6256;63.808;20.336;2023-08-20T08:20:12;1.52;;;1.10;;
12383;SDS011;6256;63.808;20.336;2023-08-20T08:22:38;1.30;;;1.20;;
12383;SDS011;6256;63.808;20.336;2023-08-20T08:25:04;1.20;;;1.10;;
12383;SDS011;6256;63.808;20.336;2023-08-20T08:27:30;1.20;;;1.10;;
12383;SDS011;6256;63.808;20.336;2023-08-20T08:29:56;1.52;;;1.40;;
12383;SDS011;6256;63.808;20.336;2023-08-20T08:32:22;1.20;;;1.10;;
12383;SDS011;6256;63.808;20.336;2023-08-20T08:34:47;1.67;;;1.30;;
12383;SDS011;6256;63.808;20.336;2023-08-20T08:37:13;2.28;;;1.40;;
12383;SDS011;6256;63.808;20.336;2023-08-20T08:39:40;1.20;;;1.10;;
12383;SDS011;6256;63.808;20.336;2023-08-20T08:42:06;1.10;;;1.10;;
12383;SDS011;6256;63.808;20.336;2023-08-20T08:44:35;1.27;;;1.17;;
12383;SDS011;6256;63.808;20.336;2023-08-20T08:47:03;1.33;;;1.23;;
12383;SDS011;6256;63.808;20.336;2023-08-20T08:49:32;1.35;;;1.20;;
12383;SDS011;6256;63.808;20.336;2023-08-20T08:51:59;1.30;;;1.20;;
12383;SDS011;6256;63.808;20.336;2023-08-20T08:54:25;1.33;;;1.23;;
12383;SDS011;6256;63.808;20.336;2023-08-20T08:56:51;1.50;;;1.40;;
12383;SDS011;6256;63.808;20.336;2023-08-20T08:59:18;1.65;;;1.35;;
12383;SDS011;6256;63.808;20.336;2023-08-20T09:01:44;1.80;;;1.58;;
12383;SDS011;6256;63.808;20.336;2023-08-20T09:04:09;2.15;;;1.95;;
12383;SDS011;6256;63.808;20.336;2023-08-20T09:06:45;2.03;;;1.90;;
12383;SDS011;6256;63.808;20.336;2023-08-20T09:09:12;2.42;;;1.33;;
12383;SDS011;6256;63.808;20.336;2023-08-20T09:11:38;1.70;;;1.50;;
12383;SDS011;6256;63.808;20.336;2023-08-20T09:14:04;1.50;;;1.40;;
12383;SDS011;6256;63.808;20.336;2023-08-20T09:16:30;3.33;;;1.40;;
12383;SDS011;6256;63.808;20.336;2023-08-20T09:18:57;1.27;;;1.17;;
12383;SDS011;6256;63.808;20.336;2023-08-20T09:21:28;1.40;;;1.30;;
12383;SDS011;6256;63.808;20.336;2023-08-20T09:23:54;1.50;;;1.40;;
12383;SDS011;6256;63.808;20.336;2023-08-20T09:26:22;1.45;;;1.35;;
12383;SDS011;6256;63.808;20.336;2023-08-20T09:28:47;5.00;;;1.48;;
12383;SDS011;6256;63.808;20.336;2023-08-20T09:31:14;1.48;;;1.38;;
12383;SDS011;6256;63.808;20.336;2023-08-20T09:36:15;1.08;;;1.08;;
12383;SDS011;6256;63.808;20.336;2023-08-20T09:38:41;1.40;;;1.30;;
12383;SDS011;6256;63.808;20.336;2023-08-20T09:41:08;1.55;;;1.45;;
12383;SDS011;6256;63.808;20.336;2023-08-20T09:43:35;1.42;;;1.33;;
12383;SDS011;6256;63.808;20.336;2023-08-20T09:46:04;1.40;;;1.30;;
12383;SDS011;6256;63.808;20.336;2023-08-20T09:48:34;1.10;;;1.02;;
12383;SDS011;6256;63.808;20.336;2023-08-20T09:51:04;1.30;;;1.20;;
12383;SDS011;6256;63.808;20.336;2023-08-20T09:53:35;3.38;;;1.15;;
12383;SDS011;6256;63.808;20.336;2023-08-20T09:56:14;1.33;;;1.23;;
12383;SDS011;6256;63.808;20.336;2023-08-20T09:58:59;1.50;;;1.40;;
12383;SDS011;6256;63.808;20.336;2023-08-20T10:01:26;1.50;;;1.40;;
12383;SDS011;6256;63.808;20.336;2023-08-20T10:03:52;1.40;;;1.30;;
12383;SDS011;6256;63.808;20.336;2023-08-20T10:06:18;1.30;;;1.20;;
12383;SDS011;6256;63.808;20.336;2023-08-20T10:08:46;1.38;;;1.25;;
12383;SDS011;6256;63.808;20.336;2023-08-20T10:11:12;1.35;;;1.23;;
12383;SDS011;6256;63.808;20.336;2023-08-20T10:13:38;1.20;;;1.10;;
12383;SDS011;6256;63.808;20.336;2023-08-20T10:16:04;2.20;;;1.30;;
12383;SDS011;6256;63.808;20.336;2023-08-20T10:18:30;1.70;;;1.50;;
12383;SDS011;6256;63.808;20.336;2023-08-20T10:20:57;1.30;;;1.20;;
12383;SDS011;6256;63.808;20.336;2023-08-20T10:23:25;1.20;;;1.10;;
12383;SDS011;6256;63.808;20.336;2023-08-20T10:25:52;1.30;;;1.20;;
12383;SDS011;6256;63.808;20.336;2023-08-20T10:28:20;1.33;;;1.23;;
12383;SDS011;6256;63.808;20.336;2023-08-20T10:31:03;1.65;;;1.20;;
12383;SDS011;6256;63.808;20.336;2023-08-20T10:33:36;1.40;;;1.27;;
12383;SDS011;6256;63.808;20.336;2023-08-20T10:36:09;1.17;;;1.00;;
12383;SDS011;6256;63.808;20.336;2023-08-20T10:38:38;1.02;;;0.93;;
12383;SDS011;6256;63.808;20.336;2023-08-20T10:41:08;1.00;;;1.00;;
12383;SDS011;6256;63.808;20.336;2023-08-20T10:43:35;0.80;;;0.80;;
12383;SDS011;6256;63.808;20.336;2023-08-20T10:46:14;1.00;;;1.00;;
12383;SDS011;6256;63.808;20.336;2023-08-20T10:48:55;0.90;;;0.90;;
12383;SDS011;6256;63.808;20.336;2023-08-20T11:01:48;2.55;;;1.10;;
12383;SDS011;6256;63.808;20.336;2023-08-20T11:04:15;0.90;;;0.82;;
12383;SDS011;6256;63.808;20.336;2023-08-20T11:06:41;1.27;;;0.80;;
12383;SDS011;6256;63.808;20.336;2023-08-20T11:09:08;1.92;;;0.95;;
12383;SDS011;6256;63.808;20.336;2023-08-20T11:11:34;1.30;;;1.20;;
12383;SDS011;6256;63.808;20.336;2023-08-20T11:14:04;1.20;;;1.10;;
12383;SDS011;6256;63.808;20.336;2023-08-20T11:16:36;1.40;;;1.30;;
12383;SDS011;6256;63.808;20.336;2023-08-20T11:19:03;1.63;;;0.90;;
12383;SDS011;6256;63.808;20.336;2023-08-20T11:21:34;0.77;;;0.77;;
12383;SDS011;6256;63.808;20.336;2023-08-20T11:24:03;1.70;;;1.10;;
12383;SDS011;6256;63.808;20.336;2023-08-20T11:26:29;1.58;;;0.90;;
12383;SDS011;6256;63.808;20.336;2023-08-20T11:28:55;1.38;;;1.00;;
12383;SDS011;6256;63.808;20.336;2023-08-20T11:31:21;1.52;;;1.10;;
12383;SDS011;6256;63.808;20.336;2023-08-20T11:33:47;1.20;;;1.10;;
12383;SDS011;6256;63.808;20.336;2023-08-20T11:36:17;1.10;;;1.00;;
12383;SDS011;6256;63.808;20.336;2023-08-20T11:38:51;0.80;;;0.80;;
12383;SDS011;6256;63.808;20.336;2023-08-20T11:41:23;2.35;;;1.00;;
12383;SDS011;6256;63.808;20.336;2023-08-20T11:43:51;1.10;;;1.05;;
12383;SDS011;6256;63.808;20.336;2023-08-20T11:46:21;1.30;;;1.20;;
12383;SDS011;6256;63.808;20.336;2023-08-20T11:49:07;1.00;;;1.00;;
12383;SDS011;6256;63.808;20.336;2023-08-20T11:51:37;1.30;;;1.20;;
12383;SDS011;6256;63.808;20.336;2023-08-20T11:54:10;0.95;;;0.90;;
12383;SDS011;6256;63.808;20.336;2023-08-20T11:56:44;0.90;;;0.90;;
12383;SDS011;6256;63.808;20.336;2023-08-20T11:59:12;0.90;;;0.90;;
12383;SDS011;6256;63.808;20.336;2023-08-20T12:01:39;0.82;;;0.82;;
12383;SDS011;6256;63.808;20.336;2023-08-20T12:04:05;0.85;;;0.80;;
12383;SDS011;6256;63.808;20.336;2023-08-20T12:06:33;1.20;;;1.10;;
12383;SDS011;6256;63.808;20.336;2023-08-20T12:09:00;1.33;;;0.90;;
12383;SDS011;6256;63.808;20.336;2023-08-20T12:11:29;0.88;;;0.88;;
12383;SDS011;6256;63.808;20.336;2023-08-20T12:13:55;1.52;;;1.10;;
12383;SDS011;6256;63.808;20.336;2023-08-20T12:16:23;1.10;;;1.00;;
12383;SDS011;6256;63.808;20.336;2023-08-20T12:18:49;1.73;;;1.00;;
12383;SDS011;6256;63.808;20.336;2023-08-20T12:21:15;1.02;;;0.80;;
12383;SDS011;6256;63.808;20.336;2023-08-20T12:23:41;1.08;;;0.98;;
12383;SDS011;6256;63.808;20.336;2023-08-20T12:26:07;1.08;;;0.98;;
12383;SDS011;6256;63.808;20.336;2023-08-20T12:28:33;1.35;;;1.13;;
12383;SDS011;6256;63.808;20.336;2023-08-20T12:30:59;1.25;;;0.90;;
12383;SDS011;6256;63.808;20.336;2023-08-20T12:33:25;0.93;;;0.93;;
12383;SDS011;6256;63.808;20.336;2023-08-20T12:35:54;1.13;;;1.02;;
12383;SDS011;6256;63.808;20.336;2023-08-20T12:38:20;1.30;;;1.20;;
12383;SDS011;6256;63.808;20.336;2023-08-20T12:40:46;2.17;;;1.20;;
12383;SDS011;6256;63.808;20.336;2023-08-20T12:43:12;1.40;;;1.30;;
12383;SDS011;6256;63.808;20.336;2023-08-20T12:45:38;1.83;;;1.20;;
12383;SDS011;6256;63.808;20.336;2023-08-20T12:48:04;1.10;;;1.00;;
12383;SDS011;6256;63.808;20.336;2023-08-20T12:50:30;1.73;;;1.38;;
12383;SDS011;6256;63.808;20.336;2023-08-20T12:52:56;1.17;;;1.08;;
12383;SDS011;6256;63.808;20.336;2023-08-20T12:55:21;1.95;;;1.30;;
12383;SDS011;6256;63.808;20.336;2023-08-20T12:57:52;1.63;;;1.50;;
12383;SDS011;6256;63.808;20.336;2023-08-20T13:00:20;1.73;;;1.30;;
12383;SDS011;6256;63.808;20.336;2023-08-20T13:02:46;2.35;;;1.20;;
12383;SDS011;6256;63.808;20.336;2023-08-20T13:05:12;1.00;;;1.00;;
12383;SDS011;6256;63.808;20.336;2023-08-20T13:07:39;2.25;;;1.27;;
12383;SDS011;6256;63.808;20.336;2023-08-20T13:10:05;1.50;;;1.40;;
12383;SDS011;6256;63.808;20.336;2023-08-20T13:12:33;1.60;;;1.50;;
12383;SDS011;6256;63.808;20.336;2023-08-20T13:14:59;1.30;;;1.20;;
12383;SDS011;6256;63.808;20.336;2023-08-20T13:17:26;2.85;;;1.15;;
12383;SDS011;6256;63.808;20.336;2023-08-20T13:19:52;1.30;;;1.15;;
12383;SDS011;6256;63.808;20.336;2023-08-20T13:22:18;1.30;;;1.20;;
12383;SDS011;6256;63.808;20.336;2023-08-20T13:24:44;0.98;;;0.98;;
12383;SDS011;6256;63.808;20.336;2023-08-20T13:27:09;1.38;;;1.27;;
12383;SDS011;6256;63.808;20.336;2023-08-20T13:29:35;1.40;;;1.30;;
12383;SDS011;6256;63.808;20.336;2023-08-20T13:32:01;1.27;;;1.17;;
12383;SDS011;6256;63.808;20.336;2023-08-20T13:34:27;1.20;;;1.10;;
12383;SDS011;6256;63.808;20.336;2023-08-20T13:36:52;1.75;;;1.48;;
12383;SDS011;6256;63.808;20.336;2023-08-20T13:39:18;1.90;;;1.10;;
12383;SDS011;6256;63.808;20.336;2023-08-20T13:41:44;1.20;;;1.10;;
12383;SDS011;6256;63.808;20.336;2023-08-20T13:44:10;1.33;;;1.13;;
12383;SDS011;6256;63.808;20.336;2023-08-20T13:46:36;1.30;;;1.20;;
12383;SDS011;6256;63.808;20.336;2023-08-20T13:49:02;1.88;;;1.05;;
12383;SDS011;6256;63.808;20.336;2023-08-20T13:51:28;2.45;;;1.35;;
12383;SDS011;6256;63.808;20.336;2023-08-20T13:53:55;1.88;;;1.40;;
12383;SDS011;6256;63.808;20.336;2023-08-20T13:56:20;1.10;;;1.08;;
12383;SDS011;6256;63.808;20.336;2023-08-20T13:58:47;1.30;;;1.20;;
12383;SDS011;6256;63.808;20.336;2023-08-20T14:01:12;1.63;;;1.40;;
12383;SDS011;6256;63.808;20.336;2023-08-20T14:03:38;1.48;;;1.20;;
12383;SDS011;6256;63.808;20.336;2023-08-20T14:06:05;1.48;;;1.38;;
12383;SDS011;6256;63.808;20.336;2023-08-20T14:08:31;1.60;;;1.50;;
12383;SDS011;6256;63.808;20.336;2023-08-20T14:10:57;2.15;;;1.38;;
12383;SDS011;6256;63.808;20.336;2023-08-20T14:13:23;1.58;;;1.40;;
12383;SDS011;6256;63.808;20.336;2023-08-20T14:15:49;1.55;;;1.17;;
12383;SDS011;6256;63.808;20.336;2023-08-20T14:18:15;1.42;;;1.27;;
12383;SDS011;6256;63.808;20.336;2023-08-20T14:20:41;1.20;;;1.10;;
12383;SDS011;6256;63.808;20.336;2023-08-20T14:23:07;1.95;;;1.20;;
12383;SDS011;6256;63.808;20.336;2023-08-20T14:25:32;1.48;;;1.30;;
12383;SDS011;6256;63.808;20.336;2023-08-20T14:27:58;2.22;;;1.27;;
12383;SDS011;6256;63.808;20.336;2023-08-20T14:30:24;1.13;;;1.00;;
12383;SDS011;6256;63.808;20.336;2023-08-20T14:32:49;1.45;;;1.35;;
12383;SDS011;6256;63.808;20.336;2023-08-20T14:35:15;1.20;;;1.10;;
12383;SDS011;6256;63.808;20.336;2023-08-20T14:37:41;1.48;;;1.30;;
12383;SDS011;6256;63.808;20.336;2023-08-20T14:40:07;1.17;;;1.08;;
12383;SDS011;6256;63.808;20.336;2023-08-20T14:42:35;1.67;;;1.30;;
12383;SDS011;6256;63.808;20.336;2023-08-20T14:45:01;1.40;;;1.30;;
12383;SDS011;6256;63.808;20.336;2023-08-20T14:47:29;1.40;;;1.30;;
12383;SDS011;6256;63.808;20.336;2023-08-20T14:49:54;1.45;;;1.35;;
12383;SDS011;6256;63.808;20.336;2023-08-20T14:52:20;2.53;;;1.30;;
12383;SDS011;6256;63.808;20.336;2023-08-20T14:54:46;1.65;;;1.55;;
12383;SDS011;6256;63.808;20.336;2023-08-20T14:57:12;1.27;;;1.17;;
12383;SDS011;6256;63.808;20.336;2023-08-20T14:59:37;1.60;;;1.48;;
12383;SDS011;6256;63.808;20.336;2023-08-20T15:02:03;1.38;;;1.27;;
12383;SDS011;6256;63.808;20.336;2023-08-20T15:04:29;1.60;;;1.50;;
12383;SDS011;6256;63.808;20.336;2023-08-20T15:06:55;1.60;;;1.50;;